ミラノ/マルペンサ の空港の天気 - METARとTAF

ミラノ・マルペンサ国際空港 ( LIMC / MXP ) - イタリア ミラノ
飛行場実況気象(Metar)
観測時間07/17 11:20 CEST (07/17 09:20 UTC)
風向・風速西北西 3m/s
視程10km以上
天気現象
なし
気温26℃
湿度54%
気圧1013hPa
METARLIMC 170920Z 29006KT 250V340 CAVOK 26/16 Q1013 NOSIG
過去の天気等 Google飛行場航空写真 Wunderground天気予報

過去48時間のMETAR

飛行場予報(TAF)
発表時間: 7/17 07:00 CEST (7/17 05:00 UTC)
予報対象時間: 17日8時 CEST ~ 18日14時 CEST
風向・風速不定 3m/s
視程10km以上
全天の4割程度の雲 雲底高度 1830m
TAF LIMC 170500Z 1706/1812 VRB05KT 9999 SCT060